Flight Track Log - Related Links

Times and Time Zones

All times are in EDT time to prevent confusion due to time zone crossing. See the EJA844 flight status page for this flight to view local times or setup timezone preferences in your user account.

Time Position Orientation Groundspeed Altitude Reporting Facility
EDT Latitude Longitude Course Direction KTS MPH feet Rate Location/Type
Sun 06:36:08 PM 33.9167 -84.3000 292° West 164 189 3,500  Level Atlanta TRACON
Sun 06:37:08 PM 33.9333 -84.3500 192° South 204 235 6,000 1,250 Climbing Atlanta TRACON
Sun 06:38:08 PM 33.8667 -84.3667 192° South 242 278 6,000  Level Atlanta TRACON
Sun 06:39:08 PM 33.8000 -84.3833 180° South 245 282 6,000  Level Atlanta TRACON
Sun 06:40:08 PM 33.7333 -84.3833 192° South 237 273 6,000  Level Atlanta TRACON
Sun 06:41:08 PM 33.6667 -84.4000 180° South 229 264 6,000  Level Atlanta TRACON
Sun 06:42:03 PM 33.6167 -84.4000 186° South 258 297 6,000 583 Level Atlanta TRACON
Sun 06:42:51 PM 33.5578 -84.4078 185° South 243 280 7,000 2,222 Climbing Atlanta Center
Sun 06:43:51 PM 33.4847 -84.4150 188° South 297 342 10,000 3,000 Climbing Atlanta Center
Sun 06:44:51 PM 33.3969 -84.4294 181° South 302 348 13,000 3,000 Climbing Atlanta Center
Sun 06:45:51 PM 33.3031 -84.4314 145° Southeast 326 375 16,000 2,650 Climbing Atlanta Center
Sun 06:46:51 PM 33.2156 -84.3592 131° Southeast 326 375 18,300 2,150 Climbing Atlanta Center
Sun 06:47:51 PM 33.1428 -84.2597 131° Southeast 350 403 20,300 1,350 Climbing Atlanta Center
Sun 06:48:51 PM 33.0678 -84.1578 129° Southeast 376 433 21,000 350 Climbing Atlanta Center
Sun 06:49:51 PM 32.9969 -84.0536 134° Southeast 406 467 21,000  Level Atlanta Center
Sun 06:50:51 PM 32.9156 -83.9522 132° Southeast 426 490 21,000  Level Atlanta Center
Sun 06:51:51 PM 32.8339 -83.8436 131° Southeast 438 504 21,000  Level Atlanta Center
Sun 06:52:51 PM 32.7544 -83.7350 132° Southeast 438 504 21,000  Level Atlanta Center
Sun 06:53:51 PM 32.6728 -83.6267 128° Southeast 438 504 21,000  Level Atlanta Center
Sun 06:54:54 PM 32.5992 -83.5136 128° Southeast 438 504 21,000  Level Atlanta Center
Sun 06:56:34 PM 32.4644 -83.3086 129° Southeast 436 502 21,000  Level Jacksonville Center
Sun 06:57:34 PM 32.3894 -83.2000 128° Southeast 436 502 21,000  Level Jacksonville Center
Sun 06:58:34 PM 32.3167 -83.0892 127° Southeast 436 502 21,000  Level Jacksonville Center
Sun 06:59:34 PM 32.2458 -82.9786 130° Southeast 431 496 21,000  Level Jacksonville Center
Sun 07:00:34 PM 32.1686 -82.8706 128° Southeast 431 496 21,000 -400 Level Jacksonville Center
Sun 07:01:34 PM 32.0956 -82.7603 128° Southeast 426 490 20,200 -1,200 Descending Jacksonville Center
Sun 07:02:34 PM 32.0264 -82.6572 129° Southeast 421 484 18,600 -1,700 Descending Jacksonville Center
Sun 07:03:34 PM 31.9531 -82.5522 128° Southeast 421 484 16,800 -1,650 Descending Jacksonville Center
Sun 07:04:34 PM 31.8839 -82.4497 128° Southeast 416 479 15,300 -1,500 Descending Jacksonville Center
Sun 07:05:34 PM 31.8208 -82.3547 134° Southeast 400 460 13,800 -1,450 Descending Jacksonville Center
Sun 07:06:34 PM 31.7600 -82.2817 137° Southeast 345 397 12,400 -1,550 Descending Jacksonville Center
Sun 07:07:34 PM 31.6867 -82.2017 144° Southeast 329 379 10,700 -1,550 Descending Jacksonville Center
Sun 07:08:34 PM 31.6214 -82.1461 139° Southeast 322 371 9,300 -1,550 Descending Jacksonville Center
Sun 07:09:34 PM 31.5500 -82.0733 137° Southeast 307 353 7,600 -1,550 Descending Jacksonville Center
Sun 07:10:34 PM 31.4911 -82.0081 123° Southeast 295 339 6,200 -800 Descending Jacksonville Center
Sun 07:11:34 PM 31.4489 -81.9306 124° Southeast 284 327 6,000 -100 Descending Jacksonville Center
Sun 07:12:34 PM 31.4064 -81.8556 123° Southeast 292 336 6,000 -250 Level Jacksonville Center
Sun 07:13:34 PM 31.3642 -81.7783 122° Southeast 292 336 5,500 -1,100 Descending Jacksonville Center
Sun 07:14:34 PM 31.3172 -81.6914 123° Southeast 292 336 3,800 -1,550 Descending Jacksonville Center
Sun 07:15:34 PM 31.2728 -81.6117 122° Southeast 287 330 2,400 -1,050 Descending Jacksonville Center
Sun 07:16:34 PM 31.2386 -81.5489 122° Southeast 264 304 1,700 -700 Descending Jacksonville Center

Login

Don't have an account? Register now (free) for customized features, flight alerts, and more!